createdAt,value
2022-12-25T00:00:47.815Z,0.00
2022-12-25T00:01:47.734Z,0.00
2022-12-25T00:02:47.835Z,0.00
2022-12-25T00:03:47.871Z,0.00
2022-12-25T00:04:47.710Z,0.00
2022-12-25T00:05:47.729Z,0.00
2022-12-25T00:06:47.760Z,0.00
2022-12-25T00:07:47.702Z,0.00
2022-12-25T00:08:47.692Z,0.00
2022-12-25T00:09:47.712Z,0.00
2022-12-25T00:10:47.708Z,0.00
2022-12-25T00:11:47.669Z,0.00
2022-12-25T00:12:47.676Z,0.00
2022-12-25T00:13:47.664Z,0.00
2022-12-25T00:14:47.652Z,0.00
2022-12-25T00:15:47.694Z,0.00
2022-12-25T00:16:47.687Z,0.00
2022-12-25T00:17:47.616Z,0.00
2022-12-25T00:18:47.611Z,0.00
2022-12-25T00:19:47.612Z,0.00
2022-12-25T00:20:47.615Z,0.00
2022-12-25T00:21:47.593Z,0.00
2022-12-25T00:22:48.598Z,0.00
2022-12-25T00:23:47.608Z,0.00
2022-12-25T00:24:47.579Z,0.00
2022-12-25T00:25:47.579Z,0.00
2022-12-25T00:26:47.577Z,0.00
2022-12-25T00:27:47.560Z,0.00
2022-12-25T00:28:47.559Z,0.00
2022-12-25T00:29:47.535Z,0.00
2022-12-25T00:30:47.532Z,0.00
2022-12-25T00:31:47.645Z,0.00
2022-12-25T00:32:47.530Z,0.00
2022-12-25T00:33:47.539Z,0.00
2022-12-25T00:34:47.498Z,0.00
2022-12-25T00:35:48.490Z,0.00
2022-12-25T00:36:47.501Z,0.00
2022-12-25T00:37:47.479Z,0.00
2022-12-25T00:38:47.486Z,0.00
2022-12-25T00:39:47.474Z,0.00
2022-12-25T00:40:47.466Z,0.00
2022-12-25T00:41:47.443Z,0.00
2022-12-25T00:42:47.447Z,0.00
2022-12-25T00:43:47.459Z,0.00
2022-12-25T00:44:47.473Z,0.00
2022-12-25T00:45:47.487Z,0.00
2022-12-25T00:46:47.484Z,0.00
2022-12-25T00:47:47.422Z,0.00
2022-12-25T00:48:47.401Z,0.00
2022-12-25T00:49:47.407Z,0.00
2022-12-25T00:50:47.384Z,0.00
2022-12-25T00:51:47.378Z,0.00
2022-12-25T00:52:47.375Z,0.00
2022-12-25T00:53:47.367Z,0.00
2022-12-25T00:54:47.371Z,0.00
2022-12-25T00:55:47.346Z,0.00
2022-12-25T00:56:48.343Z,0.00
2022-12-25T00:57:47.339Z,0.00
2022-12-25T00:58:47.342Z,0.00
2022-12-25T00:59:47.339Z,0.00
2022-12-25T01:00:47.349Z,0.00
2022-12-25T01:01:47.421Z,0.00
2022-12-25T01:02:47.485Z,0.00
2022-12-25T01:03:47.310Z,0.00
2022-12-25T01:04:47.830Z,0.00
2022-12-25T01:05:47.305Z,0.00
2022-12-25T01:06:47.302Z,0.00
2022-12-25T01:07:47.272Z,0.00
2022-12-25T01:08:47.266Z,0.00
2022-12-25T01:09:47.266Z,0.00
2022-12-25T01:10:47.259Z,0.00
2022-12-25T01:11:47.250Z,0.00
2022-12-25T01:12:47.246Z,0.00
2022-12-25T01:13:47.229Z,0.00
2022-12-25T01:14:47.234Z,0.00
2022-12-25T01:15:47.227Z,0.00
2022-12-25T01:16:47.335Z,0.00
2022-12-25T01:17:47.227Z,0.00
2022-12-25T01:18:47.199Z,0.00
2022-12-25T01:19:47.207Z,0.00
2022-12-25T01:20:47.193Z,0.00
2022-12-25T01:21:47.192Z,0.00
2022-12-25T01:22:47.371Z,0.00
2022-12-25T01:23:47.163Z,0.00
2022-12-25T01:24:47.142Z,0.00
2022-12-25T01:25:47.197Z,0.00
2022-12-25T01:26:47.172Z,0.00
2022-12-25T01:27:47.167Z,0.00
2022-12-25T01:28:47.165Z,0.00
2022-12-25T01:29:47.138Z,0.00
2022-12-25T01:30:47.138Z,0.00
2022-12-25T01:31:47.165Z,0.00
2022-12-25T01:32:47.095Z,0.00
2022-12-25T01:33:47.099Z,0.00
2022-12-25T01:34:51.987Z,0.00
2022-12-25T01:35:49.089Z,0.00
2022-12-25T01:36:47.063Z,0.00
2022-12-25T01:37:47.085Z,0.00
2022-12-25T01:38:47.060Z,0.00
2022-12-25T01:39:47.036Z,0.00
2022-12-25T01:40:47.040Z,0.00
2022-12-25T01:41:47.023Z,0.00
2022-12-25T01:42:47.080Z,0.00
2022-12-25T01:43:47.011Z,0.00
2022-12-25T01:44:47.015Z,0.00
2022-12-25T01:45:48.370Z,0.00
2022-12-25T01:46:47.040Z,0.00
2022-12-25T01:47:47.990Z,0.00
2022-12-25T01:48:46.979Z,0.00
2022-12-25T01:49:46.987Z,0.00
2022-12-25T01:50:46.988Z,0.00
2022-12-25T01:51:46.960Z,0.00
2022-12-25T01:52:46.930Z,0.00
2022-12-25T01:53:46.967Z,0.00
2022-12-25T01:54:46.926Z,0.00
2022-12-25T01:55:47.930Z,0.00
2022-12-25T01:56:46.926Z,0.00
2022-12-25T01:57:46.914Z,0.00
2022-12-25T01:58:46.918Z,0.00
2022-12-25T01:59:46.916Z,0.00
2022-12-25T02:00:46.899Z,0.00
2022-12-25T02:01:47.045Z,0.00
2022-12-25T02:02:47.011Z,0.00
2022-12-25T02:03:46.861Z,0.00
2022-12-25T02:04:46.874Z,0.00
2022-12-25T02:05:46.860Z,0.00
2022-12-25T02:06:46.856Z,0.00
2022-12-25T02:07:46.846Z,0.00
2022-12-25T02:08:46.844Z,0.00
2022-12-25T02:09:46.842Z,0.00
2022-12-25T02:10:47.827Z,0.00
2022-12-25T02:11:46.817Z,0.00
2022-12-25T02:12:46.816Z,0.00
2022-12-25T02:13:46.798Z,0.00
2022-12-25T02:14:46.803Z,0.00
2022-12-25T02:15:46.786Z,0.00
2022-12-25T02:16:56.559Z,0.00
2022-12-25T02:17:47.780Z,0.00
2022-12-25T02:18:46.763Z,0.00
2022-12-25T02:19:46.767Z,0.00
2022-12-25T02:20:46.763Z,0.00
2022-12-25T02:21:46.781Z,0.00
2022-12-25T02:22:46.745Z,0.00
2022-12-25T02:23:47.732Z,0.00
2022-12-25T02:24:46.722Z,0.00
2022-12-25T02:25:46.710Z,0.00
2022-12-25T02:26:46.721Z,0.00
2022-12-25T02:27:46.707Z,0.00
2022-12-25T02:28:46.698Z,0.00
2022-12-25T02:29:46.693Z,0.00
2022-12-25T02:30:46.677Z,0.00
2022-12-25T02:31:46.716Z,0.00
2022-12-25T02:32:46.686Z,0.00
2022-12-25T02:33:46.670Z,0.00
2022-12-25T02:34:46.659Z,0.00
2022-12-25T02:35:46.647Z,0.00
2022-12-25T02:36:46.667Z,0.00
2022-12-25T02:37:46.637Z,0.00
2022-12-25T02:38:46.637Z,0.00
2022-12-25T02:39:46.610Z,0.00
2022-12-25T02:40:46.603Z,0.00
2022-12-25T02:41:46.608Z,0.00
2022-12-25T02:42:46.596Z,0.00
2022-12-25T02:43:46.595Z,0.00
2022-12-25T02:44:46.598Z,0.00
2022-12-25T02:45:46.620Z,0.00
2022-12-25T02:46:46.571Z,0.00
2022-12-25T02:47:46.559Z,0.00
2022-12-25T02:48:46.562Z,0.00
2022-12-25T02:49:46.563Z,0.00
2022-12-25T02:50:46.546Z,0.00
2022-12-25T02:51:46.523Z,0.00
2022-12-25T02:52:46.526Z,0.00
2022-12-25T02:53:46.516Z,0.00
2022-12-25T02:54:46.535Z,0.00
2022-12-25T02:55:46.499Z,0.00
2022-12-25T02:56:46.501Z,0.00
2022-12-25T02:57:46.501Z,0.00
2022-12-25T02:58:46.487Z,0.00
2022-12-25T02:59:46.489Z,0.00
2022-12-25T03:00:46.492Z,0.00
2022-12-25T03:01:46.669Z,0.00
2022-12-25T03:02:46.460Z,0.00
2022-12-25T03:03:46.531Z,0.00
2022-12-25T03:04:46.448Z,0.00
2022-12-25T03:05:46.443Z,0.00
2022-12-25T03:06:46.603Z,0.00
2022-12-25T03:07:46.438Z,0.00
2022-12-25T03:08:46.420Z,0.00
2022-12-25T03:09:46.428Z,0.00
2022-12-25T03:10:46.440Z,0.00
2022-12-25T03:11:46.491Z,0.00
2022-12-25T03:12:46.407Z,0.00
2022-12-25T03:13:46.403Z,0.00
2022-12-25T03:14:46.391Z,0.00
2022-12-25T03:15:46.379Z,0.00
2022-12-25T03:16:46.394Z,0.00
2022-12-25T03:17:46.352Z,0.00
2022-12-25T03:18:46.390Z,0.00
2022-12-25T03:19:46.340Z,0.00
2022-12-25T03:20:46.328Z,0.00
2022-12-25T03:21:46.318Z,0.00
2022-12-25T03:22:46.311Z,0.00
2022-12-25T03:23:46.315Z,0.00
2022-12-25T03:24:46.299Z,0.00
2022-12-25T03:25:46.300Z,0.00
2022-12-25T03:26:46.311Z,0.00
2022-12-25T03:27:46.280Z,0.00
2022-12-25T03:28:46.291Z,0.00
2022-12-25T03:29:46.263Z,0.00
2022-12-25T03:30:46.294Z,0.00
2022-12-25T03:31:46.266Z,0.00
2022-12-25T03:32:46.252Z,0.00
2022-12-25T03:33:46.325Z,0.00
2022-12-25T03:34:46.248Z,0.00
2022-12-25T03:35:46.223Z,0.00
2022-12-25T03:36:46.216Z,0.00
2022-12-25T03:37:46.217Z,0.00
2022-12-25T03:38:46.221Z,0.00
2022-12-25T03:39:46.281Z,0.00
2022-12-25T03:40:46.203Z,0.00
2022-12-25T03:41:46.185Z,0.00
2022-12-25T03:42:46.198Z,0.00
2022-12-25T03:43:46.171Z,0.00
2022-12-25T03:44:46.172Z,0.00
2022-12-25T03:45:46.222Z,0.00
2022-12-25T03:46:46.145Z,0.00
2022-12-25T03:47:46.138Z,0.00
2022-12-25T03:48:46.122Z,0.00
2022-12-25T03:49:46.118Z,0.00
2022-12-25T03:50:46.128Z,0.00
2022-12-25T03:51:46.111Z,0.00
2022-12-25T03:52:46.122Z,0.00
2022-12-25T03:53:46.103Z,0.00
2022-12-25T03:54:46.088Z,0.00
2022-12-25T03:55:46.081Z,0.00
2022-12-25T03:56:46.078Z,0.00
2022-12-25T03:57:46.085Z,0.00
2022-12-25T03:58:46.058Z,0.00
2022-12-25T03:59:46.056Z,0.00
2022-12-25T04:00:46.037Z,0.00
2022-12-25T04:01:46.128Z,0.00
2022-12-25T04:02:46.180Z,0.00
2022-12-25T04:03:46.071Z,0.00
2022-12-25T04:04:46.001Z,0.00
2022-12-25T04:05:46.005Z,0.00
2022-12-25T04:06:45.991Z,0.00
2022-12-25T04:07:45.998Z,0.00
2022-12-25T04:08:45.986Z,0.00
2022-12-25T04:09:45.970Z,0.00
2022-12-25T04:10:45.985Z,0.00
2022-12-25T04:11:45.960Z,0.00
2022-12-25T04:12:45.974Z,0.00
2022-12-25T04:13:45.941Z,0.00
2022-12-25T04:14:45.934Z,0.00
2022-12-25T04:15:46.017Z,0.00
2022-12-25T04:16:45.922Z,0.00
2022-12-25T04:17:45.950Z,0.00
2022-12-25T04:18:45.906Z,0.00
2022-12-25T04:19:46.899Z,0.00
2022-12-25T04:20:45.907Z,0.00
2022-12-25T04:21:45.895Z,0.00
2022-12-25T04:22:45.886Z,0.00
2022-12-25T04:23:45.893Z,0.00
2022-12-25T04:24:45.867Z,0.00
2022-12-25T04:25:45.868Z,0.00
2022-12-25T04:26:45.858Z,0.00
2022-12-25T04:27:45.861Z,0.00
2022-12-25T04:28:45.858Z,0.00
2022-12-25T04:29:45.835Z,0.00
2022-12-25T04:30:45.876Z,0.00
2022-12-25T04:31:45.840Z,0.00
2022-12-25T04:32:45.799Z,0.00
2022-12-25T04:33:45.818Z,0.00
2022-12-25T04:34:45.821Z,0.00
2022-12-25T04:35:45.797Z,0.00
2022-12-25T04:36:45.784Z,0.00
2022-12-25T04:37:45.774Z,0.00
2022-12-25T04:38:45.783Z,0.00
2022-12-25T04:39:45.776Z,0.00
2022-12-25T04:40:45.761Z,0.00
2022-12-25T04:41:45.759Z,0.00
2022-12-25T04:42:45.776Z,0.00
2022-12-25T04:43:45.738Z,0.00
2022-12-25T04:44:45.736Z,0.00
2022-12-25T04:45:45.765Z,0.00
2022-12-25T04:46:45.765Z,0.00
2022-12-25T04:47:45.711Z,0.00
2022-12-25T04:48:45.699Z,0.00
2022-12-25T04:49:45.733Z,0.00
2022-12-25T04:50:46.696Z,0.00
2022-12-25T04:51:45.679Z,0.00
2022-12-25T04:52:45.669Z,0.00
2022-12-25T04:53:45.650Z,0.00
2022-12-25T04:54:45.641Z,0.00
2022-12-25T04:55:45.864Z,0.00
2022-12-25T04:56:46.178Z,0.00
2022-12-25T04:57:46.619Z,0.00
2022-12-25T04:58:45.630Z,0.00
2022-12-25T04:59:45.618Z,0.00
2022-12-25T05:00:45.623Z,0.00
2022-12-25T05:01:45.670Z,0.00
2022-12-25T05:02:46.774Z,0.00
2022-12-25T05:03:45.645Z,0.00
2022-12-25T05:04:45.579Z,0.00
2022-12-25T05:05:45.584Z,0.00
2022-12-25T05:06:45.571Z,0.00
2022-12-25T05:07:45.568Z,0.00
2022-12-25T05:08:45.550Z,0.00
2022-12-25T05:09:45.552Z,0.00
2022-12-25T05:10:45.536Z,0.00
2022-12-25T05:11:45.550Z,0.00
2022-12-25T05:12:45.543Z,0.00
2022-12-25T05:13:45.521Z,0.00
2022-12-25T05:14:45.512Z,0.00
2022-12-25T05:15:45.592Z,0.00
2022-12-25T05:16:45.491Z,0.00
2022-12-25T05:17:45.487Z,0.00
2022-12-25T05:18:45.470Z,0.00
2022-12-25T05:19:45.488Z,0.00
2022-12-25T05:20:45.468Z,0.00
2022-12-25T05:21:45.467Z,0.00
2022-12-25T05:22:45.474Z,0.00
2022-12-25T05:23:45.446Z,0.00
2022-12-25T05:24:45.445Z,0.00
2022-12-25T05:25:45.443Z,0.00
2022-12-25T05:26:45.431Z,0.00
2022-12-25T05:27:50.297Z,0.00
2022-12-25T05:28:47.411Z,0.00
2022-12-25T05:29:45.400Z,0.00
2022-12-25T05:30:45.393Z,0.00
2022-12-25T05:31:45.443Z,0.00
2022-12-25T05:32:45.374Z,0.00
2022-12-25T05:33:45.368Z,0.00
2022-12-25T05:34:45.367Z,0.00
2022-12-25T05:35:45.377Z,0.00
2022-12-25T05:36:45.354Z,0.00
2022-12-25T05:37:45.365Z,0.00
2022-12-25T05:38:45.339Z,0.00
2022-12-25T05:39:45.344Z,0.00
2022-12-25T05:40:45.328Z,0.00
2022-12-25T05:41:45.323Z,0.00
2022-12-25T05:42:45.327Z,0.00
2022-12-25T05:43:45.312Z,0.00
2022-12-25T05:44:45.294Z,0.00
2022-12-25T05:45:45.288Z,0.00
2022-12-25T05:46:45.338Z,0.00
2022-12-25T05:47:45.269Z,0.00
2022-12-25T05:48:45.280Z,0.00
2022-12-25T05:49:45.314Z,0.00
2022-12-25T05:50:45.319Z,0.00
2022-12-25T05:51:45.245Z,0.00
2022-12-25T05:52:45.235Z,0.00
2022-12-25T05:53:45.229Z,0.00
2022-12-25T05:54:45.234Z,0.00
2022-12-25T05:55:45.222Z,0.00
2022-12-25T05:56:45.190Z,0.00
2022-12-25T05:57:45.200Z,0.00
2022-12-25T05:58:45.188Z,0.00
2022-12-25T05:59:45.177Z,0.00
2022-12-25T06:00:45.179Z,0.00
2022-12-25T06:01:45.266Z,0.00
2022-12-25T06:02:45.407Z,0.00
2022-12-25T06:03:45.310Z,0.00
2022-12-25T06:04:45.153Z,0.00
2022-12-25T06:05:45.168Z,0.00
2022-12-25T06:06:45.129Z,0.00
2022-12-25T06:07:45.132Z,0.00
2022-12-25T06:08:45.160Z,0.00
2022-12-25T06:09:45.114Z,0.00
2022-12-25T06:10:45.102Z,0.00
2022-12-25T06:11:45.124Z,0.00
2022-12-25T06:12:45.103Z,0.00
2022-12-25T06:13:45.068Z,0.00
2022-12-25T06:14:45.078Z,0.00
2022-12-25T06:15:45.068Z,0.00
2022-12-25T06:16:45.098Z,0.00
2022-12-25T06:17:45.066Z,0.00
2022-12-25T06:18:45.030Z,0.00
2022-12-25T06:19:45.080Z,0.00
2022-12-25T06:20:45.031Z,0.00
2022-12-25T06:21:45.028Z,0.00
2022-12-25T06:22:45.034Z,0.00
2022-12-25T06:23:45.093Z,0.00
2022-12-25T06:24:44.997Z,0.00
2022-12-25T06:25:45.002Z,0.00
2022-12-25T06:26:44.986Z,0.00
2022-12-25T06:27:44.990Z,0.00
2022-12-25T06:28:44.982Z,0.00
2022-12-25T06:29:44.967Z,0.00
2022-12-25T06:30:44.947Z,0.00
2022-12-25T06:31:45.066Z,0.00
2022-12-25T06:32:44.961Z,0.00
2022-12-25T06:33:44.960Z,0.00
2022-12-25T06:34:44.922Z,0.00
2022-12-25T06:35:44.926Z,0.00
2022-12-25T06:36:44.913Z,0.00
2022-12-25T06:37:44.926Z,0.00
2022-12-25T06:38:44.956Z,0.00
2022-12-25T06:39:44.897Z,0.00
2022-12-25T06:40:44.885Z,0.00
2022-12-25T06:41:44.893Z,0.00
2022-12-25T06:42:44.885Z,0.00
2022-12-25T06:43:44.898Z,0.00
2022-12-25T06:44:44.881Z,0.00
2022-12-25T06:45:44.976Z,0.00
2022-12-25T06:46:44.841Z,0.00
2022-12-25T06:47:45.130Z,0.00
2022-12-25T06:48:44.846Z,0.00
2022-12-25T06:49:44.854Z,0.00
2022-12-25T06:50:44.856Z,0.00
2022-12-25T06:51:44.817Z,0.00
2022-12-25T06:52:44.825Z,0.00
2022-12-25T06:53:44.794Z,0.00
2022-12-25T06:54:44.856Z,0.00
2022-12-25T06:55:45.748Z,0.00
2022-12-25T06:56:44.775Z,0.00
2022-12-25T06:57:44.790Z,0.00
2022-12-25T06:58:44.773Z,0.00
2022-12-25T06:59:47.420Z,0.00
2022-12-25T07:00:45.841Z,0.00
2022-12-25T07:01:44.842Z,0.00
2022-12-25T07:02:44.842Z,0.00
2022-12-25T07:03:44.753Z,0.00
2022-12-25T07:04:44.726Z,0.00
2022-12-25T07:05:44.723Z,0.00
2022-12-25T07:06:44.720Z,0.00
2022-12-25T07:07:44.711Z,0.00
2022-12-25T07:08:44.706Z,0.00
2022-12-25T07:09:44.725Z,0.00
2022-12-25T07:10:44.681Z,0.00
2022-12-25T07:11:44.673Z,0.00
2022-12-25T07:12:44.670Z,0.00
2022-12-25T07:13:44.644Z,0.00
2022-12-25T07:14:44.694Z,0.00
2022-12-25T07:15:44.682Z,0.00
2022-12-25T07:16:44.716Z,0.00
2022-12-25T07:17:44.632Z,0.00
2022-12-25T07:18:44.626Z,0.00
2022-12-25T07:19:45.534Z,0.00
2022-12-25T07:20:45.617Z,0.00
2022-12-25T07:21:44.608Z,0.00
2022-12-25T07:22:44.607Z,0.00
2022-12-25T07:23:44.596Z,0.00
2022-12-25T07:24:44.591Z,0.00
2022-12-25T07:25:44.571Z,0.00
2022-12-25T07:26:44.560Z,0.00
2022-12-25T07:27:44.555Z,0.00
2022-12-25T07:28:44.648Z,0.00
2022-12-25T07:29:44.563Z,0.00
2022-12-25T07:30:44.538Z,0.00
2022-12-25T07:31:44.623Z,0.00
2022-12-25T07:32:50.016Z,0.00
2022-12-25T07:33:46.519Z,0.00
2022-12-25T07:34:44.508Z,0.00
2022-12-25T07:35:44.506Z,0.00
2022-12-25T07:36:44.509Z,0.00
2022-12-25T07:37:44.482Z,0.00
2022-12-25T07:38:44.494Z,0.00
2022-12-25T07:39:44.474Z,5.62
2022-12-25T07:40:44.495Z,5.62
2022-12-25T07:41:44.483Z,5.62
2022-12-25T07:42:44.457Z,5.62
2022-12-25T07:43:44.447Z,11.25
2022-12-25T07:44:44.440Z,11.25
2022-12-25T07:45:44.476Z,11.25
2022-12-25T07:46:44.429Z,11.25
2022-12-25T07:47:44.423Z,11.25
2022-12-25T07:48:44.427Z,11.25
2022-12-25T07:49:44.440Z,11.25
2022-12-25T07:50:44.424Z,11.25
2022-12-25T07:51:44.395Z,11.25
2022-12-25T07:52:44.399Z,11.25
2022-12-25T07:53:44.381Z,11.25
2022-12-25T07:54:44.366Z,11.25
2022-12-25T07:55:44.472Z,11.25
2022-12-25T07:56:44.387Z,11.25
2022-12-25T07:57:44.355Z,11.25
2022-12-25T07:58:44.362Z,11.25
2022-12-25T07:59:44.339Z,11.25
2022-12-25T08:00:44.392Z,16.88
2022-12-25T08:01:44.508Z,16.88
2022-12-25T08:02:44.604Z,16.88
2022-12-25T08:03:44.359Z,16.88
2022-12-25T08:04:44.299Z,16.88
2022-12-25T08:05:44.282Z,16.88
2022-12-25T08:06:44.289Z,16.88
2022-12-25T08:07:44.293Z,16.88
2022-12-25T08:08:44.275Z,16.88
2022-12-25T08:09:44.257Z,16.88
2022-12-25T08:10:44.258Z,16.88
2022-12-25T08:11:44.249Z,16.88
2022-12-25T08:12:44.241Z,22.50
2022-12-25T08:13:44.254Z,28.12
2022-12-25T08:14:44.225Z,33.75
2022-12-25T08:15:44.224Z,33.75
2022-12-25T08:16:44.253Z,33.75
2022-12-25T08:17:44.209Z,33.75
2022-12-25T08:18:44.254Z,28.12
2022-12-25T08:19:44.193Z,28.12
2022-12-25T08:20:44.193Z,28.12
2022-12-25T08:21:44.174Z,22.50
2022-12-25T08:22:44.172Z,22.50
2022-12-25T08:23:44.176Z,22.50
2022-12-25T08:24:44.203Z,22.50
2022-12-25T08:25:44.173Z,16.88
2022-12-25T08:26:44.226Z,16.88
2022-12-25T08:27:44.138Z,16.88
2022-12-25T08:28:44.128Z,22.50
2022-12-25T08:29:44.136Z,22.50
2022-12-25T08:30:44.312Z,28.12
2022-12-25T08:31:46.388Z,22.50
2022-12-25T08:32:45.094Z,22.50
2022-12-25T08:33:44.093Z,22.50
2022-12-25T08:34:44.117Z,16.88
2022-12-25T08:35:44.083Z,16.88
2022-12-25T08:36:44.083Z,16.88
2022-12-25T08:37:44.063Z,16.88
2022-12-25T08:38:44.080Z,16.88
2022-12-25T08:39:44.061Z,11.25
2022-12-25T08:40:44.038Z,11.25
2022-12-25T08:41:44.041Z,11.25
2022-12-25T08:42:44.026Z,11.25
2022-12-25T08:43:44.051Z,16.88
2022-12-25T08:44:44.017Z,16.88
2022-12-25T08:45:44.053Z,22.50
2022-12-25T08:46:44.107Z,28.12
2022-12-25T08:47:43.985Z,33.75
2022-12-25T08:48:43.995Z,33.75
2022-12-25T08:49:44.007Z,33.75
2022-12-25T08:50:43.970Z,39.38
2022-12-25T08:51:43.962Z,39.38
2022-12-25T08:52:43.957Z,39.38
2022-12-25T08:53:44.004Z,33.75
2022-12-25T08:54:43.964Z,33.75
2022-12-25T08:55:43.944Z,28.12
2022-12-25T08:56:43.938Z,28.12
2022-12-25T08:57:43.928Z,28.12
2022-12-25T08:58:43.939Z,33.75
2022-12-25T08:59:43.950Z,33.75
2022-12-25T09:00:43.917Z,33.75
2022-12-25T09:01:44.038Z,33.75
2022-12-25T09:02:43.989Z,33.75
2022-12-25T09:03:44.032Z,33.75
2022-12-25T09:04:43.885Z,39.38
2022-12-25T09:05:43.865Z,39.38
2022-12-25T09:06:43.876Z,45.00
2022-12-25T09:07:43.854Z,45.00
2022-12-25T09:08:48.544Z,45.00
2022-12-25T09:09:45.841Z,45.00
2022-12-25T09:10:43.832Z,45.00
2022-12-25T09:11:43.826Z,45.00
2022-12-25T09:12:43.816Z,45.00
2022-12-25T09:13:43.810Z,45.00
2022-12-25T09:14:43.798Z,45.00
2022-12-25T09:15:43.868Z,45.00
2022-12-25T09:16:43.810Z,45.00
2022-12-25T09:17:43.779Z,45.00
2022-12-25T09:18:43.789Z,39.38
2022-12-25T09:19:43.786Z,33.75
2022-12-25T09:20:43.760Z,28.12
2022-12-25T09:21:43.769Z,28.12
2022-12-25T09:22:43.765Z,28.12
2022-12-25T09:23:43.735Z,28.12
2022-12-25T09:24:43.752Z,28.12
2022-12-25T09:25:43.729Z,28.12
2022-12-25T09:26:43.722Z,28.12
2022-12-25T09:27:43.762Z,28.12
2022-12-25T09:28:50.207Z,28.12
2022-12-25T09:29:45.692Z,28.12
2022-12-25T09:30:43.714Z,28.12
2022-12-25T09:31:43.706Z,28.12
2022-12-25T09:32:43.678Z,28.12
2022-12-25T09:33:43.692Z,28.12
2022-12-25T09:34:43.672Z,28.12
2022-12-25T09:35:43.655Z,28.12
2022-12-25T09:36:43.639Z,28.12
2022-12-25T09:37:43.669Z,33.75
2022-12-25T09:38:43.650Z,33.75
2022-12-25T09:39:46.345Z,28.12
2022-12-25T09:40:44.621Z,28.12
2022-12-25T09:41:43.623Z,28.12
2022-12-25T09:42:43.637Z,28.12
2022-12-25T09:43:43.638Z,28.12
2022-12-25T09:44:43.590Z,28.12
2022-12-25T09:45:43.588Z,28.12
2022-12-25T09:46:43.709Z,28.12
2022-12-25T09:47:43.580Z,28.12
2022-12-25T09:48:43.577Z,28.12
2022-12-25T09:49:43.595Z,28.12
2022-12-25T09:50:43.568Z,28.12
2022-12-25T09:51:43.566Z,28.12
2022-12-25T09:52:43.636Z,28.12
2022-12-25T09:53:43.542Z,28.12
2022-12-25T09:54:43.552Z,28.12
2022-12-25T09:55:43.523Z,28.12
2022-12-25T09:56:43.515Z,28.12
2022-12-25T09:57:43.496Z,28.12
2022-12-25T09:58:43.576Z,28.12
2022-12-25T09:59:43.492Z,28.12
2022-12-25T10:00:43.494Z,28.12
2022-12-25T10:01:43.603Z,28.12
2022-12-25T10:02:43.739Z,33.75
2022-12-25T10:03:43.562Z,33.75
2022-12-25T10:04:43.473Z,39.38
2022-12-25T10:05:43.455Z,39.38
2022-12-25T10:06:43.439Z,33.75
2022-12-25T10:07:43.443Z,33.75
2022-12-25T10:08:43.422Z,33.75
2022-12-25T10:09:43.433Z,39.38
2022-12-25T10:10:43.416Z,39.38
2022-12-25T10:11:43.419Z,39.38
2022-12-25T10:12:43.382Z,39.38
2022-12-25T10:13:43.403Z,39.38
2022-12-25T10:14:43.415Z,39.38
2022-12-25T10:15:45.634Z,39.38
2022-12-25T10:16:44.368Z,39.38
2022-12-25T10:17:43.366Z,45.00
2022-12-25T10:18:43.358Z,45.00
2022-12-25T10:19:43.380Z,45.00
2022-12-25T10:20:43.361Z,39.38
2022-12-25T10:21:43.336Z,45.00
2022-12-25T10:22:43.339Z,45.00
2022-12-25T10:23:43.324Z,45.00
2022-12-25T10:24:43.331Z,39.38
2022-12-25T10:25:43.333Z,39.38
2022-12-25T10:26:43.309Z,33.75
2022-12-25T10:27:43.303Z,33.75
2022-12-25T10:28:43.291Z,33.75
2022-12-25T10:29:43.289Z,33.75
2022-12-25T10:30:43.307Z,28.12
2022-12-25T10:31:43.401Z,28.12
2022-12-25T10:32:43.279Z,28.12
2022-12-25T10:33:43.257Z,33.75
2022-12-25T10:34:43.262Z,33.75
2022-12-25T10:35:43.247Z,33.75
2022-12-25T10:36:43.238Z,28.12
2022-12-25T10:37:43.242Z,28.12
2022-12-25T10:38:43.230Z,22.50
2022-12-25T10:39:46.589Z,22.50
2022-12-25T10:40:44.253Z,22.50
2022-12-25T10:41:43.204Z,22.50
2022-12-25T10:42:43.192Z,22.50
2022-12-25T10:43:43.191Z,22.50
2022-12-25T10:44:43.202Z,16.88
2022-12-25T10:45:43.180Z,16.88
2022-12-25T10:46:43.226Z,16.88
2022-12-25T10:47:43.166Z,22.50
2022-12-25T10:48:43.159Z,22.50
2022-12-25T10:49:43.152Z,22.50
2022-12-25T10:50:43.169Z,22.50
2022-12-25T10:51:43.134Z,22.50
2022-12-25T10:52:43.127Z,22.50
2022-12-25T10:53:43.130Z,22.50
2022-12-25T10:54:43.099Z,22.50
2022-12-25T10:55:44.121Z,28.12
2022-12-25T10:56:43.122Z,28.12
2022-12-25T10:57:43.092Z,28.12
2022-12-25T10:58:43.094Z,33.75
2022-12-25T10:59:43.109Z,33.75
2022-12-25T11:00:43.087Z,33.75
2022-12-25T11:01:43.152Z,33.75
2022-12-25T11:02:43.279Z,33.75
2022-12-25T11:03:43.076Z,33.75
2022-12-25T11:04:43.037Z,33.75
2022-12-25T11:05:43.049Z,33.75
2022-12-25T11:06:43.048Z,28.12
2022-12-25T11:07:43.014Z,33.75
2022-12-25T11:08:43.019Z,28.12
2022-12-25T11:09:43.003Z,33.75
2022-12-25T11:10:42.999Z,33.75
2022-12-25T11:11:43.131Z,39.38
2022-12-25T11:12:43.033Z,39.38
2022-12-25T11:13:42.985Z,45.00
2022-12-25T11:14:42.970Z,45.00
2022-12-25T11:15:43.027Z,50.62
2022-12-25T11:16:43.029Z,50.62
2022-12-25T11:17:42.970Z,50.62
2022-12-25T11:18:42.955Z,50.62
2022-12-25T11:19:42.958Z,50.62
2022-12-25T11:20:47.123Z,45.00
2022-12-25T11:21:43.929Z,39.38
2022-12-25T11:22:42.916Z,39.38
2022-12-25T11:23:42.922Z,39.38
2022-12-25T11:24:42.897Z,39.38
2022-12-25T11:25:42.894Z,39.38
2022-12-25T11:26:42.883Z,39.38
2022-12-25T11:27:42.882Z,39.38
2022-12-25T11:28:42.898Z,39.38
2022-12-25T11:29:42.882Z,33.75
2022-12-25T11:30:42.871Z,33.75
2022-12-25T11:31:42.921Z,28.12
2022-12-25T11:32:42.842Z,28.12
2022-12-25T11:33:42.838Z,33.75
2022-12-25T11:34:42.828Z,33.75
2022-12-25T11:35:42.825Z,33.75
2022-12-25T11:36:42.815Z,33.75
2022-12-25T11:37:42.814Z,33.75
2022-12-25T11:38:42.794Z,33.75
2022-12-25T11:39:42.795Z,33.75
2022-12-25T11:40:42.796Z,33.75
2022-12-25T11:41:42.781Z,33.75
2022-12-25T11:42:42.770Z,33.75
2022-12-25T11:43:42.760Z,28.12
2022-12-25T11:44:42.751Z,28.12
2022-12-25T11:45:42.779Z,28.12
2022-12-25T11:46:42.844Z,28.12
2022-12-25T11:47:42.758Z,22.50
2022-12-25T11:48:42.733Z,22.50
2022-12-25T11:49:48.716Z,16.88
2022-12-25T11:50:43.764Z,16.88
2022-12-25T11:51:42.724Z,16.88
2022-12-25T11:52:42.712Z,16.88
2022-12-25T11:53:42.716Z,16.88
2022-12-25T11:54:42.685Z,11.25
2022-12-25T11:55:42.690Z,11.25
2022-12-25T11:56:42.682Z,11.25
2022-12-25T11:57:42.657Z,11.25
2022-12-25T11:58:42.651Z,11.25
2022-12-25T11:59:42.646Z,16.88
2022-12-25T12:00:42.634Z,16.88
2022-12-25T12:01:42.734Z,16.88
2022-12-25T12:02:42.883Z,16.88
2022-12-25T12:03:42.716Z,16.88
2022-12-25T12:04:43.453Z,16.88
2022-12-25T12:05:43.600Z,16.88
2022-12-25T12:06:42.608Z,16.88
2022-12-25T12:07:42.586Z,16.88
2022-12-25T12:08:42.587Z,22.50
2022-12-25T12:09:42.576Z,22.50
2022-12-25T12:10:42.587Z,22.50
2022-12-25T12:11:42.557Z,22.50
2022-12-25T12:12:48.500Z,22.50
2022-12-25T12:13:44.582Z,16.88
2022-12-25T12:14:42.545Z,16.88
2022-12-25T12:15:42.530Z,16.88
2022-12-25T12:16:42.557Z,16.88
2022-12-25T12:17:42.537Z,16.88
2022-12-25T12:18:48.128Z,22.50
2022-12-25T12:19:44.507Z,22.50
2022-12-25T12:20:42.493Z,22.50
2022-12-25T12:21:42.515Z,22.50
2022-12-25T12:22:42.483Z,22.50
2022-12-25T12:23:42.482Z,16.88
2022-12-25T12:24:42.471Z,22.50
2022-12-25T12:25:42.467Z,22.50
2022-12-25T12:26:42.480Z,22.50
2022-12-25T12:27:42.477Z,22.50
2022-12-25T12:28:42.450Z,28.12
2022-12-25T12:29:42.447Z,33.75
2022-12-25T12:30:43.436Z,39.38
2022-12-25T12:31:42.513Z,39.38
2022-12-25T12:32:42.427Z,28.12
2022-12-25T12:33:42.406Z,22.50
2022-12-25T12:34:42.463Z,16.88
2022-12-25T12:35:42.394Z,11.25
2022-12-25T12:36:42.390Z,11.25
2022-12-25T12:37:42.504Z,11.25
2022-12-25T12:38:42.373Z,11.25
2022-12-25T12:39:42.365Z,11.25
2022-12-25T12:40:42.365Z,11.25
2022-12-25T12:41:43.357Z,11.25
2022-12-25T12:42:42.351Z,11.25
2022-12-25T12:43:42.355Z,11.25
2022-12-25T12:44:42.372Z,5.62
2022-12-25T12:45:42.364Z,5.62
2022-12-25T12:46:42.359Z,5.62
2022-12-25T12:47:42.324Z,5.62
2022-12-25T12:48:42.309Z,5.62
2022-12-25T12:49:43.298Z,5.62
2022-12-25T12:50:42.307Z,5.62
2022-12-25T12:51:42.285Z,5.62
2022-12-25T12:52:42.282Z,5.62
2022-12-25T12:53:42.281Z,11.25
2022-12-25T12:54:42.257Z,11.25
2022-12-25T12:55:42.270Z,11.25
2022-12-25T12:56:42.275Z,11.25
2022-12-25T12:57:42.244Z,11.25
2022-12-25T12:58:42.248Z,16.88
2022-12-25T12:59:42.226Z,16.88
2022-12-25T13:00:42.283Z,16.88
2022-12-25T13:01:42.329Z,16.88
2022-12-25T13:02:42.320Z,11.25
2022-12-25T13:03:42.207Z,11.25
2022-12-25T13:04:42.191Z,11.25
2022-12-25T13:05:42.207Z,11.25
2022-12-25T13:06:42.168Z,11.25
2022-12-25T13:07:42.175Z,11.25